sensor_id;sensor_type;location;lat;lon;timestamp;P1;durP1;ratioP1;P2;durP2;ratioP2
66139;SDS011;52945;51.908;8.364;2023-07-13T00:01:54;2.50;;;1.60;;
66139;SDS011;52945;51.908;8.364;2023-07-13T00:04:55;2.47;;;1.50;;
66139;SDS011;52945;51.908;8.364;2023-07-13T00:07:55;2.30;;;1.80;;
66139;SDS011;52945;51.908;8.364;2023-07-13T00:10:56;3.38;;;1.70;;
66139;SDS011;52945;51.908;8.364;2023-07-13T00:13:56;2.95;;;1.38;;
66139;SDS011;52945;51.908;8.364;2023-07-13T00:16:57;2.35;;;1.90;;
66139;SDS011;52945;51.908;8.364;2023-07-13T00:20:00;3.58;;;1.92;;
66139;SDS011;52945;51.908;8.364;2023-07-13T00:23:01;4.63;;;2.00;;
66139;SDS011;52945;51.908;8.364;2023-07-13T00:26:02;3.97;;;1.80;;
66139;SDS011;52945;51.908;8.364;2023-07-13T00:29:04;2.72;;;1.60;;
66139;SDS011;52945;51.908;8.364;2023-07-13T00:32:08;3.33;;;1.73;;
66139;SDS011;52945;51.908;8.364;2023-07-13T00:35:09;3.75;;;1.50;;
66139;SDS011;52945;51.908;8.364;2023-07-13T00:38:11;2.35;;;1.50;;
66139;SDS011;52945;51.908;8.364;2023-07-13T00:41:11;3.17;;;1.27;;
66139;SDS011;52945;51.908;8.364;2023-07-13T00:44:13;3.53;;;1.48;;
66139;SDS011;52945;51.908;8.364;2023-07-13T00:47:15;3.40;;;1.45;;
66139;SDS011;52945;51.908;8.364;2023-07-13T00:50:16;2.90;;;1.55;;
66139;SDS011;52945;51.908;8.364;2023-07-13T00:53:18;3.33;;;2.03;;
66139;SDS011;52945;51.908;8.364;2023-07-13T00:56:19;3.35;;;1.70;;
66139;SDS011;52945;51.908;8.364;2023-07-13T00:59:20;3.90;;;1.63;;
66139;SDS011;52945;51.908;8.364;2023-07-13T01:02:22;2.80;;;1.70;;
66139;SDS011;52945;51.908;8.364;2023-07-13T01:05:24;3.40;;;1.73;;
66139;SDS011;52945;51.908;8.364;2023-07-13T01:08:25;4.97;;;2.20;;
66139;SDS011;52945;51.908;8.364;2023-07-13T01:11:26;2.97;;;1.90;;
66139;SDS011;52945;51.908;8.364;2023-07-13T01:14:27;3.55;;;1.40;;
66139;SDS011;52945;51.908;8.364;2023-07-13T01:17:28;3.30;;;1.67;;
66139;SDS011;52945;51.908;8.364;2023-07-13T01:20:29;4.22;;;1.60;;
66139;SDS011;52945;51.908;8.364;2023-07-13T01:23:30;2.70;;;1.55;;
66139;SDS011;52945;51.908;8.364;2023-07-13T01:26:31;5.68;;;1.73;;
66139;SDS011;52945;51.908;8.364;2023-07-13T01:29:32;3.35;;;1.50;;
66139;SDS011;52945;51.908;8.364;2023-07-13T01:32:35;3.78;;;2.00;;
66139;SDS011;52945;51.908;8.364;2023-07-13T01:35:36;3.28;;;1.63;;
66139;SDS011;52945;51.908;8.364;2023-07-13T01:38:37;3.92;;;1.77;;
66139;SDS011;52945;51.908;8.364;2023-07-13T01:41:38;5.85;;;1.77;;
66139;SDS011;52945;51.908;8.364;2023-07-13T01:44:38;4.55;;;1.50;;
66139;SDS011;52945;51.908;8.364;2023-07-13T01:47:39;3.58;;;1.50;;
66139;SDS011;52945;51.908;8.364;2023-07-13T01:50:39;3.75;;;1.52;;
66139;SDS011;52945;51.908;8.364;2023-07-13T01:53:40;3.00;;;1.48;;
66139;SDS011;52945;51.908;8.364;2023-07-13T01:56:40;4.78;;;1.38;;
66139;SDS011;52945;51.908;8.364;2023-07-13T01:59:41;4.07;;;1.50;;
66139;SDS011;52945;51.908;8.364;2023-07-13T02:02:42;3.55;;;1.60;;
66139;SDS011;52945;51.908;8.364;2023-07-13T02:05:43;4.03;;;1.60;;
66139;SDS011;52945;51.908;8.364;2023-07-13T02:08:44;4.03;;;1.60;;
66139;SDS011;52945;51.908;8.364;2023-07-13T02:11:45;2.65;;;1.30;;
66139;SDS011;52945;51.908;8.364;2023-07-13T02:14:45;2.60;;;1.30;;
66139;SDS011;52945;51.908;8.364;2023-07-13T02:17:46;4.57;;;1.70;;
66139;SDS011;52945;51.908;8.364;2023-07-13T02:20:47;6.32;;;1.63;;
66139;SDS011;52945;51.908;8.364;2023-07-13T02:23:48;3.92;;;1.65;;
66139;SDS011;52945;51.908;8.364;2023-07-13T02:26:49;3.83;;;1.55;;
66139;SDS011;52945;51.908;8.364;2023-07-13T02:29:50;2.97;;;1.20;;
66139;SDS011;52945;51.908;8.364;2023-07-13T02:32:51;3.63;;;1.40;;
66139;SDS011;52945;51.908;8.364;2023-07-13T02:35:51;3.80;;;1.55;;
66139;SDS011;52945;51.908;8.364;2023-07-13T02:38:52;2.28;;;1.42;;
66139;SDS011;52945;51.908;8.364;2023-07-13T02:41:53;3.25;;;1.60;;
66139;SDS011;52945;51.908;8.364;2023-07-13T02:44:53;2.35;;;1.35;;
66139;SDS011;52945;51.908;8.364;2023-07-13T02:47:54;3.95;;;1.77;;
66139;SDS011;52945;51.908;8.364;2023-07-13T02:50:55;3.90;;;1.48;;
66139;SDS011;52945;51.908;8.364;2023-07-13T02:53:55;2.25;;;1.60;;
66139;SDS011;52945;51.908;8.364;2023-07-13T02:56:56;4.93;;;1.65;;
66139;SDS011;52945;51.908;8.364;2023-07-13T02:59:57;4.13;;;1.38;;
66139;SDS011;52945;51.908;8.364;2023-07-13T03:02:57;2.20;;;1.60;;
66139;SDS011;52945;51.908;8.364;2023-07-13T03:05:59;3.53;;;1.42;;
66139;SDS011;52945;51.908;8.364;2023-07-13T03:09:02;5.30;;;1.83;;
66139;SDS011;52945;51.908;8.364;2023-07-13T03:12:03;3.10;;;1.67;;
66139;SDS011;52945;51.908;8.364;2023-07-13T03:15:04;4.00;;;1.90;;
66139;SDS011;52945;51.908;8.364;2023-07-13T03:18:05;5.18;;;2.30;;
66139;SDS011;52945;51.908;8.364;2023-07-13T03:21:06;4.50;;;1.92;;
66139;SDS011;52945;51.908;8.364;2023-07-13T03:24:07;7.55;;;2.17;;
66139;SDS011;52945;51.908;8.364;2023-07-13T03:27:07;5.85;;;2.25;;
66139;SDS011;52945;51.908;8.364;2023-07-13T03:30:08;3.85;;;2.05;;
66139;SDS011;52945;51.908;8.364;2023-07-13T03:33:09;4.95;;;2.20;;
66139;SDS011;52945;51.908;8.364;2023-07-13T03:36:12;5.50;;;2.33;;
66139;SDS011;52945;51.908;8.364;2023-07-13T03:39:20;4.15;;;1.88;;
66139;SDS011;52945;51.908;8.364;2023-07-13T03:42:21;2.88;;;1.80;;
66139;SDS011;52945;51.908;8.364;2023-07-13T03:45:21;3.53;;;1.77;;
66139;SDS011;52945;51.908;8.364;2023-07-13T03:48:22;5.70;;;1.80;;
66139;SDS011;52945;51.908;8.364;2023-07-13T03:51:22;3.90;;;1.52;;
66139;SDS011;52945;51.908;8.364;2023-07-13T03:54:24;4.60;;;1.60;;
66139;SDS011;52945;51.908;8.364;2023-07-13T03:57:24;3.05;;;1.48;;
66139;SDS011;52945;51.908;8.364;2023-07-13T04:00:26;3.72;;;1.33;;
66139;SDS011;52945;51.908;8.364;2023-07-13T04:06:28;5.15;;;1.40;;
66139;SDS011;52945;51.908;8.364;2023-07-13T04:09:29;6.78;;;1.40;;
66139;SDS011;52945;51.908;8.364;2023-07-13T04:15:31;4.10;;;1.58;;
66139;SDS011;52945;51.908;8.364;2023-07-13T04:18:32;7.93;;;1.20;;
66139;SDS011;52945;51.908;8.364;2023-07-13T04:21:32;2.22;;;1.17;;
66139;SDS011;52945;51.908;8.364;2023-07-13T04:24:33;4.82;;;1.48;;
66139;SDS011;52945;51.908;8.364;2023-07-13T04:30:34;4.50;;;1.40;;
66139;SDS011;52945;51.908;8.364;2023-07-13T04:33:35;4.07;;;1.15;;
66139;SDS011;52945;51.908;8.364;2023-07-13T04:36:35;3.67;;;1.40;;
66139;SDS011;52945;51.908;8.364;2023-07-13T04:39:37;6.03;;;1.83;;
66139;SDS011;52945;51.908;8.364;2023-07-13T04:42:38;2.08;;;1.30;;
66139;SDS011;52945;51.908;8.364;2023-07-13T04:45:39;1.55;;;1.02;;
66139;SDS011;52945;51.908;8.364;2023-07-13T04:48:39;3.63;;;1.20;;
66139;SDS011;52945;51.908;8.364;2023-07-13T04:51:40;4.40;;;1.42;;
66139;SDS011;52945;51.908;8.364;2023-07-13T04:54:40;2.83;;;1.15;;
66139;SDS011;52945;51.908;8.364;2023-07-13T04:57:42;2.28;;;1.10;;
66139;SDS011;52945;51.908;8.364;2023-07-13T05:03:43;3.45;;;1.00;;
66139;SDS011;52945;51.908;8.364;2023-07-13T05:06:43;3.20;;;1.48;;
66139;SDS011;52945;51.908;8.364;2023-07-13T05:09:44;3.53;;;1.30;;
66139;SDS011;52945;51.908;8.364;2023-07-13T05:12:45;3.53;;;0.98;;
66139;SDS011;52945;51.908;8.364;2023-07-13T05:18:47;1.40;;;0.90;;
66139;SDS011;52945;51.908;8.364;2023-07-13T05:24:48;3.22;;;1.10;;
66139;SDS011;52945;51.908;8.364;2023-07-13T05:27:49;3.38;;;1.30;;
66139;SDS011;52945;51.908;8.364;2023-07-13T05:30:50;2.63;;;0.82;;
66139;SDS011;52945;51.908;8.364;2023-07-13T05:36:51;3.45;;;0.95;;
66139;SDS011;52945;51.908;8.364;2023-07-13T05:39:52;2.53;;;1.02;;
66139;SDS011;52945;51.908;8.364;2023-07-13T05:42:53;5.88;;;0.93;;
66139;SDS011;52945;51.908;8.364;2023-07-13T05:45:54;4.25;;;1.20;;
66139;SDS011;52945;51.908;8.364;2023-07-13T05:48:56;4.78;;;1.23;;
66139;SDS011;52945;51.908;8.364;2023-07-13T05:51:57;2.20;;;1.15;;
66139;SDS011;52945;51.908;8.364;2023-07-13T05:54:57;4.35;;;1.13;;
66139;SDS011;52945;51.908;8.364;2023-07-13T06:01:06;3.33;;;1.10;;
66139;SDS011;52945;51.908;8.364;2023-07-13T06:04:10;2.60;;;0.98;;
66139;SDS011;52945;51.908;8.364;2023-07-13T06:07:11;4.85;;;1.35;;
66139;SDS011;52945;51.908;8.364;2023-07-13T06:13:12;4.22;;;1.38;;
66139;SDS011;52945;51.908;8.364;2023-07-13T06:16:13;3.78;;;1.05;;
66139;SDS011;52945;51.908;8.364;2023-07-13T06:19:14;6.97;;;1.60;;
66139;SDS011;52945;51.908;8.364;2023-07-13T06:22:15;6.57;;;1.20;;
66139;SDS011;52945;51.908;8.364;2023-07-13T06:25:15;3.08;;;1.17;;
66139;SDS011;52945;51.908;8.364;2023-07-13T06:28:17;4.93;;;1.30;;
66139;SDS011;52945;51.908;8.364;2023-07-13T06:31:18;5.10;;;1.40;;
66139;SDS011;52945;51.908;8.364;2023-07-13T06:34:18;2.50;;;1.20;;
66139;SDS011;52945;51.908;8.364;2023-07-13T06:37:19;6.57;;;1.45;;
66139;SDS011;52945;51.908;8.364;2023-07-13T06:40:20;5.72;;;1.40;;
66139;SDS011;52945;51.908;8.364;2023-07-13T06:43:21;4.53;;;1.23;;
66139;SDS011;52945;51.908;8.364;2023-07-13T06:49:22;6.28;;;1.83;;
66139;SDS011;52945;51.908;8.364;2023-07-13T06:52:23;3.67;;;1.70;;
66139;SDS011;52945;51.908;8.364;2023-07-13T06:55:23;5.90;;;1.60;;
66139;SDS011;52945;51.908;8.364;2023-07-13T06:58:24;5.95;;;1.65;;
66139;SDS011;52945;51.908;8.364;2023-07-13T07:01:24;4.90;;;1.48;;
66139;SDS011;52945;51.908;8.364;2023-07-13T07:04:25;8.13;;;1.50;;
66139;SDS011;52945;51.908;8.364;2023-07-13T07:07:26;6.97;;;1.50;;
66139;SDS011;52945;51.908;8.364;2023-07-13T07:13:29;5.35;;;1.80;;
66139;SDS011;52945;51.908;8.364;2023-07-13T07:16:30;4.15;;;1.65;;
66139;SDS011;52945;51.908;8.364;2023-07-13T07:19:30;4.68;;;1.65;;
66139;SDS011;52945;51.908;8.364;2023-07-13T07:22:31;3.63;;;1.38;;
66139;SDS011;52945;51.908;8.364;2023-07-13T07:25:32;4.90;;;1.80;;
66139;SDS011;52945;51.908;8.364;2023-07-13T07:28:36;4.90;;;2.05;;
66139;SDS011;52945;51.908;8.364;2023-07-13T07:31:37;5.53;;;2.25;;
66139;SDS011;52945;51.908;8.364;2023-07-13T07:34:38;4.95;;;2.00;;
66139;SDS011;52945;51.908;8.364;2023-07-13T07:37:39;7.75;;;2.38;;
66139;SDS011;52945;51.908;8.364;2023-07-13T07:40:40;5.65;;;2.08;;
66139;SDS011;52945;51.908;8.364;2023-07-13T07:43:40;6.68;;;2.40;;
66139;SDS011;52945;51.908;8.364;2023-07-13T07:46:41;6.78;;;2.22;;
66139;SDS011;52945;51.908;8.364;2023-07-13T07:49:42;5.53;;;2.35;;
66139;SDS011;52945;51.908;8.364;2023-07-13T07:52:42;8.52;;;2.63;;
66139;SDS011;52945;51.908;8.364;2023-07-13T07:55:44;8.07;;;2.13;;
66139;SDS011;52945;51.908;8.364;2023-07-13T07:58:45;4.43;;;2.15;;
66139;SDS011;52945;51.908;8.364;2023-07-13T08:01:45;6.93;;;2.00;;
66139;SDS011;52945;51.908;8.364;2023-07-13T08:04:48;6.28;;;1.77;;
66139;SDS011;52945;51.908;8.364;2023-07-13T08:07:48;5.97;;;2.10;;
66139;SDS011;52945;51.908;8.364;2023-07-13T08:10:49;10.25;;;2.17;;
66139;SDS011;52945;51.908;8.364;2023-07-13T08:13:49;8.40;;;2.28;;
66139;SDS011;52945;51.908;8.364;2023-07-13T08:16:50;4.05;;;2.10;;
66139;SDS011;52945;51.908;8.364;2023-07-13T08:19:50;5.15;;;1.90;;
66139;SDS011;52945;51.908;8.364;2023-07-13T08:22:51;4.32;;;2.00;;
66139;SDS011;52945;51.908;8.364;2023-07-13T08:25:52;6.40;;;2.05;;
66139;SDS011;52945;51.908;8.364;2023-07-13T08:28:53;4.57;;;1.80;;
66139;SDS011;52945;51.908;8.364;2023-07-13T08:31:53;2.60;;;1.73;;
66139;SDS011;52945;51.908;8.364;2023-07-13T08:34:54;4.75;;;2.13;;
66139;SDS011;52945;51.908;8.364;2023-07-13T08:37:55;6.18;;;2.53;;
66139;SDS011;52945;51.908;8.364;2023-07-13T08:40:56;8.32;;;1.98;;
66139;SDS011;52945;51.908;8.364;2023-07-13T08:43:58;5.50;;;1.80;;
66139;SDS011;52945;51.908;8.364;2023-07-13T08:47:00;5.80;;;2.30;;
66139;SDS011;52945;51.908;8.364;2023-07-13T08:50:02;6.68;;;1.80;;
66139;SDS011;52945;51.908;8.364;2023-07-13T08:53:03;6.07;;;2.10;;
66139;SDS011;52945;51.908;8.364;2023-07-13T08:56:04;4.03;;;2.08;;
66139;SDS011;52945;51.908;8.364;2023-07-13T08:59:16;5.18;;;1.90;;
66139;SDS011;52945;51.908;8.364;2023-07-13T09:02:26;6.45;;;2.15;;
66139;SDS011;52945;51.908;8.364;2023-07-13T09:05:38;5.90;;;2.15;;
66139;SDS011;52945;51.908;8.364;2023-07-13T09:12:31;3.75;;;2.25;;
66139;SDS011;52945;51.908;8.364;2023-07-13T09:15:39;4.32;;;2.22;;
66139;SDS011;52945;51.908;8.364;2023-07-13T09:18:47;3.63;;;2.25;;
66139;SDS011;52945;51.908;8.364;2023-07-13T09:21:50;3.40;;;2.08;;
66139;SDS011;52945;51.908;8.364;2023-07-13T09:25:00;3.83;;;2.33;;
66139;SDS011;52945;51.908;8.364;2023-07-13T09:31:14;7.75;;;2.50;;
66139;SDS011;52945;51.908;8.364;2023-07-13T09:34:18;3.60;;;2.83;;
66139;SDS011;52945;51.908;8.364;2023-07-13T09:37:19;4.70;;;2.95;;
66139;SDS011;52945;51.908;8.364;2023-07-13T09:40:38;5.38;;;2.45;;
66139;SDS011;52945;51.908;8.364;2023-07-13T09:44:06;3.60;;;2.58;;
66139;SDS011;52945;51.908;8.364;2023-07-13T09:47:19;4.47;;;2.53;;
66139;SDS011;52945;51.908;8.364;2023-07-13T09:50:24;5.25;;;3.00;;
66139;SDS011;52945;51.908;8.364;2023-07-13T09:53:25;5.28;;;2.50;;
66139;SDS011;52945;51.908;8.364;2023-07-13T09:56:31;3.67;;;2.22;;
66139;SDS011;52945;51.908;8.364;2023-07-13T09:59:33;5.05;;;2.70;;
66139;SDS011;52945;51.908;8.364;2023-07-13T10:02:36;5.22;;;2.42;;
66139;SDS011;52945;51.908;8.364;2023-07-13T10:05:40;5.90;;;2.53;;
66139;SDS011;52945;51.908;8.364;2023-07-13T10:08:44;4.35;;;2.40;;
66139;SDS011;52945;51.908;8.364;2023-07-13T10:11:46;3.30;;;2.22;;
66139;SDS011;52945;51.908;8.364;2023-07-13T10:14:51;4.78;;;2.60;;
66139;SDS011;52945;51.908;8.364;2023-07-13T10:17:57;6.30;;;2.38;;
66139;SDS011;52945;51.908;8.364;2023-07-13T10:21:00;4.88;;;2.15;;
66139;SDS011;52945;51.908;8.364;2023-07-13T10:24:19;3.85;;;2.20;;
66139;SDS011;52945;51.908;8.364;2023-07-13T10:27:33;3.67;;;2.08;;
66139;SDS011;52945;51.908;8.364;2023-07-13T10:30:35;5.28;;;2.20;;
66139;SDS011;52945;51.908;8.364;2023-07-13T10:33:41;3.25;;;2.00;;
66139;SDS011;52945;51.908;8.364;2023-07-13T10:36:47;6.00;;;2.42;;
66139;SDS011;52945;51.908;8.364;2023-07-13T10:39:48;2.67;;;1.92;;
66139;SDS011;52945;51.908;8.364;2023-07-13T10:42:52;5.18;;;1.90;;
66139;SDS011;52945;51.908;8.364;2023-07-13T10:45:55;2.80;;;1.80;;
66139;SDS011;52945;51.908;8.364;2023-07-13T10:48:58;3.03;;;1.75;;
66139;SDS011;52945;51.908;8.364;2023-07-13T10:52:02;4.85;;;1.63;;
66139;SDS011;52945;51.908;8.364;2023-07-13T10:55:03;3.88;;;1.60;;
66139;SDS011;52945;51.908;8.364;2023-07-13T10:58:12;3.38;;;1.77;;
66139;SDS011;52945;51.908;8.364;2023-07-13T11:01:15;4.97;;;1.75;;
66139;SDS011;52945;51.908;8.364;2023-07-13T11:04:18;2.30;;;1.60;;
66139;SDS011;52945;51.908;8.364;2023-07-13T11:07:21;2.25;;;1.70;;
66139;SDS011;52945;51.908;8.364;2023-07-13T11:16:50;4.65;;;1.70;;
66139;SDS011;52945;51.908;8.364;2023-07-13T11:19:51;4.00;;;1.98;;
66139;SDS011;52945;51.908;8.364;2023-07-13T11:32:50;3.00;;;1.73;;
66139;SDS011;52945;51.908;8.364;2023-07-13T11:39:32;6.20;;;1.88;;
66139;SDS011;52945;51.908;8.364;2023-07-13T11:45:38;4.45;;;1.60;;
66139;SDS011;52945;51.908;8.364;2023-07-13T11:48:39;5.72;;;1.85;;
66139;SDS011;52945;51.908;8.364;2023-07-13T11:51:40;2.95;;;1.60;;
66139;SDS011;52945;51.908;8.364;2023-07-13T11:54:43;5.82;;;2.13;;
66139;SDS011;52945;51.908;8.364;2023-07-13T11:57:51;4.28;;;1.90;;
66139;SDS011;52945;51.908;8.364;2023-07-13T12:00:58;3.92;;;1.88;;
66139;SDS011;52945;51.908;8.364;2023-07-13T12:04:02;1.95;;;1.70;;
66139;SDS011;52945;51.908;8.364;2023-07-13T12:13:12;2.50;;;2.00;;
66139;SDS011;52945;51.908;8.364;2023-07-13T12:16:15;3.35;;;2.30;;
66139;SDS011;52945;51.908;8.364;2023-07-13T12:19:37;3.40;;;2.38;;
66139;SDS011;52945;51.908;8.364;2023-07-13T12:22:37;3.65;;;2.30;;
66139;SDS011;52945;51.908;8.364;2023-07-13T12:25:38;6.40;;;2.25;;
66139;SDS011;52945;51.908;8.364;2023-07-13T12:28:43;3.00;;;2.13;;
66139;SDS011;52945;51.908;8.364;2023-07-13T12:31:45;4.40;;;2.22;;
66139;SDS011;52945;51.908;8.364;2023-07-13T12:34:52;7.05;;;2.33;;
66139;SDS011;52945;51.908;8.364;2023-07-13T12:38:12;6.88;;;2.10;;
66139;SDS011;52945;51.908;8.364;2023-07-13T12:41:14;3.85;;;2.00;;
66139;SDS011;52945;51.908;8.364;2023-07-13T12:44:16;2.80;;;1.83;;
66139;SDS011;52945;51.908;8.364;2023-07-13T12:47:19;3.35;;;1.73;;
66139;SDS011;52945;51.908;8.364;2023-07-13T12:50:22;4.13;;;1.90;;
66139;SDS011;52945;51.908;8.364;2023-07-13T12:53:30;3.28;;;1.60;;
66139;SDS011;52945;51.908;8.364;2023-07-13T12:56:32;5.05;;;1.95;;
66139;SDS011;52945;51.908;8.364;2023-07-13T12:59:33;3.55;;;1.70;;
66139;SDS011;52945;51.908;8.364;2023-07-13T13:02:36;2.88;;;1.65;;
66139;SDS011;52945;51.908;8.364;2023-07-13T13:05:36;2.85;;;1.60;;
66139;SDS011;52945;51.908;8.364;2023-07-13T13:08:37;3.72;;;1.50;;
66139;SDS011;52945;51.908;8.364;2023-07-13T13:11:41;3.67;;;1.75;;
66139;SDS011;52945;51.908;8.364;2023-07-13T13:14:42;4.05;;;1.67;;
66139;SDS011;52945;51.908;8.364;2023-07-13T13:17:42;3.03;;;1.48;;
66139;SDS011;52945;51.908;8.364;2023-07-13T13:20:43;2.47;;;1.60;;
66139;SDS011;52945;51.908;8.364;2023-07-13T13:23:44;4.30;;;1.80;;
66139;SDS011;52945;51.908;8.364;2023-07-13T13:26:46;3.03;;;1.63;;
66139;SDS011;52945;51.908;8.364;2023-07-13T13:29:48;3.85;;;1.80;;
66139;SDS011;52945;51.908;8.364;2023-07-13T13:32:51;5.18;;;1.60;;
66139;SDS011;52945;51.908;8.364;2023-07-13T13:35:52;3.22;;;1.77;;
66139;SDS011;52945;51.908;8.364;2023-07-13T13:38:52;2.00;;;1.80;;
66139;SDS011;52945;51.908;8.364;2023-07-13T13:41:53;4.82;;;2.17;;
66139;SDS011;52945;51.908;8.364;2023-07-13T13:44:54;2.65;;;1.73;;
66139;SDS011;52945;51.908;8.364;2023-07-13T13:47:56;3.13;;;1.70;;
66139;SDS011;52945;51.908;8.364;2023-07-13T13:50:57;4.00;;;1.70;;
66139;SDS011;52945;51.908;8.364;2023-07-13T13:53:59;4.07;;;1.63;;
66139;SDS011;52945;51.908;8.364;2023-07-13T13:57:01;4.32;;;1.38;;
66139;SDS011;52945;51.908;8.364;2023-07-13T14:00:02;3.03;;;1.27;;
66139;SDS011;52945;51.908;8.364;2023-07-13T14:03:03;1.77;;;1.30;;
66139;SDS011;52945;51.908;8.364;2023-07-13T14:06:07;3.75;;;1.58;;
66139;SDS011;52945;51.908;8.364;2023-07-13T14:09:12;3.60;;;1.52;;
66139;SDS011;52945;51.908;8.364;2023-07-13T14:12:15;2.58;;;1.70;;
66139;SDS011;52945;51.908;8.364;2023-07-13T14:15:22;7.60;;;2.40;;
66139;SDS011;52945;51.908;8.364;2023-07-13T14:18:25;3.85;;;1.92;;
66139;SDS011;52945;51.908;8.364;2023-07-13T14:21:27;4.63;;;2.38;;
66139;SDS011;52945;51.908;8.364;2023-07-13T14:24:29;2.95;;;1.60;;
66139;SDS011;52945;51.908;8.364;2023-07-13T14:27:29;4.90;;;1.55;;
66139;SDS011;52945;51.908;8.364;2023-07-13T14:30:30;2.10;;;1.50;;
66139;SDS011;52945;51.908;8.364;2023-07-13T14:33:30;5.70;;;2.20;;
66139;SDS011;52945;51.908;8.364;2023-07-13T14:36:36;5.18;;;2.10;;
66139;SDS011;52945;51.908;8.364;2023-07-13T14:39:42;2.95;;;1.80;;
66139;SDS011;52945;51.908;8.364;2023-07-13T14:42:44;3.92;;;2.00;;
66139;SDS011;52945;51.908;8.364;2023-07-13T14:45:46;2.72;;;1.60;;
66139;SDS011;52945;51.908;8.364;2023-07-13T14:48:49;3.97;;;1.90;;
66139;SDS011;52945;51.908;8.364;2023-07-13T14:51:50;4.85;;;2.05;;
66139;SDS011;52945;51.908;8.364;2023-07-13T14:54:51;2.20;;;1.60;;
66139;SDS011;52945;51.908;8.364;2023-07-13T14:57:52;4.55;;;1.67;;
66139;SDS011;52945;51.908;8.364;2023-07-13T15:00:52;1.70;;;1.30;;
66139;SDS011;52945;51.908;8.364;2023-07-13T15:03:55;3.03;;;1.80;;
66139;SDS011;52945;51.908;8.364;2023-07-13T15:07:00;4.85;;;2.03;;
66139;SDS011;52945;51.908;8.364;2023-07-13T15:10:04;3.13;;;1.90;;
66139;SDS011;52945;51.908;8.364;2023-07-13T15:13:18;4.55;;;2.10;;
66139;SDS011;52945;51.908;8.364;2023-07-13T15:16:21;4.22;;;2.00;;
66139;SDS011;52945;51.908;8.364;2023-07-13T15:19:24;4.05;;;2.00;;
66139;SDS011;52945;51.908;8.364;2023-07-13T15:22:25;2.72;;;2.10;;
66139;SDS011;52945;51.908;8.364;2023-07-13T15:25:26;3.28;;;1.60;;
66139;SDS011;52945;51.908;8.364;2023-07-13T15:28:28;3.08;;;2.00;;
66139;SDS011;52945;51.908;8.364;2023-07-13T15:31:29;3.08;;;1.88;;
66139;SDS011;52945;51.908;8.364;2023-07-13T15:34:31;2.95;;;1.90;;
66139;SDS011;52945;51.908;8.364;2023-07-13T15:37:32;3.17;;;1.70;;
66139;SDS011;52945;51.908;8.364;2023-07-13T15:40:32;3.83;;;1.60;;
66139;SDS011;52945;51.908;8.364;2023-07-13T15:43:33;2.63;;;1.80;;
66139;SDS011;52945;51.908;8.364;2023-07-13T15:46:34;3.95;;;1.73;;
66139;SDS011;52945;51.908;8.364;2023-07-13T15:49:34;4.30;;;1.90;;
66139;SDS011;52945;51.908;8.364;2023-07-13T15:52:35;4.97;;;1.90;;
66139;SDS011;52945;51.908;8.364;2023-07-13T15:55:37;4.35;;;1.90;;
66139;SDS011;52945;51.908;8.364;2023-07-13T15:58:39;2.53;;;1.52;;
66139;SDS011;52945;51.908;8.364;2023-07-13T16:01:39;2.60;;;1.52;;
66139;SDS011;52945;51.908;8.364;2023-07-13T16:04:41;2.65;;;1.45;;
66139;SDS011;52945;51.908;8.364;2023-07-13T16:07:46;3.55;;;1.42;;
66139;SDS011;52945;51.908;8.364;2023-07-13T16:10:47;2.65;;;1.80;;
66139;SDS011;52945;51.908;8.364;2023-07-13T16:13:48;3.03;;;1.80;;
66139;SDS011;52945;51.908;8.364;2023-07-13T16:16:54;3.33;;;1.60;;
66139;SDS011;52945;51.908;8.364;2023-07-13T16:19:55;2.50;;;1.88;;
66139;SDS011;52945;51.908;8.364;2023-07-13T16:22:56;3.70;;;1.40;;
66139;SDS011;52945;51.908;8.364;2023-07-13T16:25:57;3.83;;;1.63;;
66139;SDS011;52945;51.908;8.364;2023-07-13T16:28:58;3.42;;;1.58;;
66139;SDS011;52945;51.908;8.364;2023-07-13T16:35:03;2.75;;;1.40;;
66139;SDS011;52945;51.908;8.364;2023-07-13T16:38:11;1.65;;;1.13;;
66139;SDS011;52945;51.908;8.364;2023-07-13T16:41:15;1.50;;;1.02;;
66139;SDS011;52945;51.908;8.364;2023-07-13T16:44:17;1.48;;;1.38;;
66139;SDS011;52945;51.908;8.364;2023-07-13T16:47:20;1.38;;;1.23;;
66139;SDS011;52945;51.908;8.364;2023-07-13T16:50:24;1.92;;;1.40;;
66139;SDS011;52945;51.908;8.364;2023-07-13T16:53:27;3.60;;;1.27;;
66139;SDS011;52945;51.908;8.364;2023-07-13T16:56:29;2.53;;;1.23;;
66139;SDS011;52945;51.908;8.364;2023-07-13T16:59:31;2.13;;;1.13;;
66139;SDS011;52945;51.908;8.364;2023-07-13T17:02:34;1.67;;;1.02;;
66139;SDS011;52945;51.908;8.364;2023-07-13T17:05:38;1.77;;;1.00;;
66139;SDS011;52945;51.908;8.364;2023-07-13T17:08:41;1.38;;;1.02;;
66139;SDS011;52945;51.908;8.364;2023-07-13T17:11:42;2.20;;;1.30;;
66139;SDS011;52945;51.908;8.364;2023-07-13T17:14:45;2.33;;;1.15;;
66139;SDS011;52945;51.908;8.364;2023-07-13T17:17:48;3.17;;;1.30;;
66139;SDS011;52945;51.908;8.364;2023-07-13T17:20:50;2.00;;;1.10;;
66139;SDS011;52945;51.908;8.364;2023-07-13T17:23:52;2.35;;;1.50;;
66139;SDS011;52945;51.908;8.364;2023-07-13T17:26:52;1.48;;;1.27;;
66139;SDS011;52945;51.908;8.364;2023-07-13T17:29:55;2.70;;;1.40;;
66139;SDS011;52945;51.908;8.364;2023-07-13T17:32:56;1.92;;;1.30;;
66139;SDS011;52945;51.908;8.364;2023-07-13T17:35:58;3.33;;;1.30;;
66139;SDS011;52945;51.908;8.364;2023-07-13T17:38:59;3.72;;;1.50;;
66139;SDS011;52945;51.908;8.364;2023-07-13T17:41:59;3.75;;;1.52;;
66139;SDS011;52945;51.908;8.364;2023-07-13T17:45:00;2.92;;;1.35;;
66139;SDS011;52945;51.908;8.364;2023-07-13T17:48:01;1.92;;;1.13;;
66139;SDS011;52945;51.908;8.364;2023-07-13T17:51:07;5.25;;;1.60;;
66139;SDS011;52945;51.908;8.364;2023-07-13T17:54:12;3.28;;;1.60;;
66139;SDS011;52945;51.908;8.364;2023-07-13T17:57:13;2.05;;;1.58;;
66139;SDS011;52945;51.908;8.364;2023-07-13T18:00:20;5.35;;;1.92;;
66139;SDS011;52945;51.908;8.364;2023-07-13T18:03:27;5.57;;;1.70;;
66139;SDS011;52945;51.908;8.364;2023-07-13T18:06:33;5.82;;;1.90;;
66139;SDS011;52945;51.908;8.364;2023-07-13T18:09:38;4.07;;;1.90;;
66139;SDS011;52945;51.908;8.364;2023-07-13T18:12:40;4.55;;;1.95;;
66139;SDS011;52945;51.908;8.364;2023-07-13T18:15:41;3.63;;;2.05;;
66139;SDS011;52945;51.908;8.364;2023-07-13T18:18:42;2.63;;;1.80;;
66139;SDS011;52945;51.908;8.364;2023-07-13T18:21:43;3.88;;;2.00;;
66139;SDS011;52945;51.908;8.364;2023-07-13T18:24:44;3.55;;;1.90;;
66139;SDS011;52945;51.908;8.364;2023-07-13T18:27:46;3.50;;;2.05;;
66139;SDS011;52945;51.908;8.364;2023-07-13T18:30:51;5.65;;;2.05;;
66139;SDS011;52945;51.908;8.364;2023-07-13T18:33:55;3.28;;;2.10;;
66139;SDS011;52945;51.908;8.364;2023-07-13T18:36:57;4.70;;;2.17;;
66139;SDS011;52945;51.908;8.364;2023-07-13T18:39:58;5.30;;;2.40;;
66139;SDS011;52945;51.908;8.364;2023-07-13T18:42:59;5.50;;;2.60;;
66139;SDS011;52945;51.908;8.364;2023-07-13T18:46:00;6.88;;;2.35;;
66139;SDS011;52945;51.908;8.364;2023-07-13T18:49:08;3.88;;;2.22;;
66139;SDS011;52945;51.908;8.364;2023-07-13T18:52:18;4.63;;;2.30;;
66139;SDS011;52945;51.908;8.364;2023-07-13T18:55:21;4.70;;;2.65;;
66139;SDS011;52945;51.908;8.364;2023-07-13T18:58:23;3.05;;;2.33;;
66139;SDS011;52945;51.908;8.364;2023-07-13T19:01:30;4.97;;;2.45;;
66139;SDS011;52945;51.908;8.364;2023-07-13T19:04:34;5.38;;;2.75;;
66139;SDS011;52945;51.908;8.364;2023-07-13T19:07:35;4.90;;;2.33;;
66139;SDS011;52945;51.908;8.364;2023-07-13T19:10:36;3.70;;;2.35;;
66139;SDS011;52945;51.908;8.364;2023-07-13T19:13:38;4.10;;;2.40;;
66139;SDS011;52945;51.908;8.364;2023-07-13T19:16:38;4.68;;;2.38;;
66139;SDS011;52945;51.908;8.364;2023-07-13T19:19:40;5.45;;;2.63;;
66139;SDS011;52945;51.908;8.364;2023-07-13T19:22:40;5.10;;;2.45;;
66139;SDS011;52945;51.908;8.364;2023-07-13T19:25:41;3.97;;;2.50;;
66139;SDS011;52945;51.908;8.364;2023-07-13T19:28:42;5.20;;;2.78;;
66139;SDS011;52945;51.908;8.364;2023-07-13T19:31:43;4.47;;;2.70;;